Time;durP1;ratioP1;P1;durP2;ratioP2;P2;SDS_P1;SDS_P2;PMS_P1;PMS_P2;Temp;Humidity;BMP_temperature;BMP_pressure;BME280_temperature;BME280_humidity;BME280_pressure;Samples;Min_cycle;Max_cycle;Signal;HPM_P1;HPM_P2
2023/05/23 00:01:32;;;;;;;1.40;1.20;;;23.50;52.60;;;;;;6190611;28;20453;-46
2023/05/23 00:04:35;;;;;;;1.27;1.10;;;23.60;52.80;;;;;;6191293;28;20101;-49
2023/05/23 00:07:37;;;;;;;1.48;1.05;;;23.60;52.70;;;;;;6191052;28;20065;-44
2023/05/23 00:10:39;;;;;;;1.30;1.20;;;23.20;52.60;;;;;;6191454;28;20049;-45
2023/05/23 00:13:40;;;;;;;1.23;1.02;;;23.50;52.70;;;;;;6190972;28;20042;-48
2023/05/23 00:16:43;;;;;;;1.13;1.02;;;23.60;52.80;;;;;;6190797;28;20126;-46
2023/05/23 00:19:45;;;;;;;1.30;1.20;;;23.30;52.70;;;;;;6189870;28;20093;-49
2023/05/23 00:22:48;;;;;;;1.20;1.10;;;23.50;53.20;;;;;;6190798;28;20448;-45
2023/05/23 00:25:54;;;;;;;1.52;1.30;;;23.40;53.10;;;;;;6190633;28;20034;-48
2023/05/23 00:28:57;;;;;;;0.90;0.80;;;23.50;53.10;;;;;;6190323;28;20112;-45
2023/05/23 00:31:58;;;;;;;1.30;1.15;;;23.50;53.10;;;;;;6190775;28;20621;-49
2023/05/23 00:35:00;;;;;;;1.38;1.02;;;23.50;53.30;;;;;;6190888;28;20391;-46
2023/05/23 00:38:02;;;;;;;1.20;1.00;;;23.50;53.20;;;;;;6190309;28;20061;-47
2023/05/23 00:41:05;;;;;;;1.63;1.25;;;23.30;53.40;;;;;;6190192;28;20038;-47
2023/05/23 00:44:08;;;;;;;1.10;1.00;;;23.10;53.20;;;;;;6193445;28;20062;-45
2023/05/23 00:47:12;;;;;;;1.20;1.10;;;23.50;53.70;;;;;;6193965;28;20062;-46
2023/05/23 00:50:15;;;;;;;1.02;0.93;;;23.30;53.30;;;;;;6194594;28;20054;-46
2023/05/23 00:53:19;;;;;;;1.35;1.25;;;23.30;53.50;;;;;;6193390;28;20039;-46
2023/05/23 00:56:21;;;;;;;1.33;1.00;;;23.40;53.60;;;;;;6194111;28;20042;-49
2023/05/23 00:59:24;;;;;;;1.00;0.90;;;23.30;53.40;;;;;;6194963;28;20537;-47
2023/05/23 01:02:28;;;;;;;1.40;1.25;;;23.40;53.00;;;;;;6193210;28;20440;-44
2023/05/23 01:05:31;;;;;;;0.77;0.75;;;23.50;53.20;;;;;;6194308;28;20113;-45
2023/05/23 01:08:32;;;;;;;1.00;0.90;;;23.50;53.90;;;;;;6196314;28;20049;-51
2023/05/23 01:11:38;;;;;;;;;;;23.20;53.30;;;;;;6198999;28;20054;-50
2023/05/23 01:14:50;;;;;;;1.30;1.02;;;23.20;53.40;;;;;;6206303;28;19928;-51
2023/05/23 01:17:58;;;;;;;1.93;1.10;;;23.30;50.70;;;;;;6200958;28;20058;-52
2023/05/23 01:21:06;;;;;;;1.10;1.00;;;23.30;53.40;;;;;;6207681;28;20050;-53
2023/05/23 01:24:27;;;;;;;1.45;1.20;;;23.40;53.40;;;;;;6206426;28;20121;-53
2023/05/23 01:27:37;;;;;;;1.40;1.17;;;23.40;53.50;;;;;;6202130;28;20035;-52
2023/05/23 01:30:41;;;;;;;1.87;1.07;;;23.30;53.50;;;;;;6198841;28;20046;-51
2023/05/23 01:33:42;;;;;;;1.20;1.05;;;23.30;53.60;;;;;;6199526;28;20039;-49
2023/05/23 01:36:44;;;;;;;1.00;0.90;;;23.30;53.80;;;;;;6209819;28;20061;-52
2023/05/23 01:39:46;;;;;;;1.13;1.02;;;23.20;53.80;;;;;;6206219;28;20034;-49
2023/05/23 01:42:51;;;;;;;1.10;1.00;;;23.20;53.90;;;;;;6207267;28;20046;-50
2023/05/23 01:45:54;;;;;;;1.10;1.00;;;23.30;53.80;;;;;;6201255;28;20066;-49
2023/05/23 01:49:00;;;;;;;1.27;1.10;;;23.20;53.80;;;;;;6201986;28;20389;-52
2023/05/23 01:52:04;;;;;;;1.15;1.00;;;21.90;53.20;;;;;;6198010;28;20060;-49
2023/05/23 01:55:08;;;;;;;1.20;1.00;;;23.30;53.90;;;;;;6198042;28;20069;-52
2023/05/23 01:58:13;;;;;;;1.20;1.10;;;22.90;53.70;;;;;;6197702;28;20034;-52
2023/05/23 02:01:15;;;;;;;1.67;1.10;;;23.30;54.20;;;;;;6197445;28;20038;-50
2023/05/23 02:04:17;;;;;;;1.38;1.20;;;23.30;54.20;;;;;;6197293;28;20045;-52
2023/05/23 02:07:21;;;;;;;1.08;0.98;;;23.30;54.20;;;;;;6195614;28;20047;-52
2023/05/23 02:10:23;;;;;;;1.02;0.93;;;23.20;54.10;;;;;;6194316;28;20039;-53
2023/05/23 02:13:25;;;;;;;;;;;23.30;54.40;;;;;;6195654;28;20042;-51
2023/05/23 02:16:26;;;;;;;1.00;0.90;;;23.10;54.50;;;;;;6196551;28;20439;-53
2023/05/23 02:19:28;;;;;;;1.08;0.98;;;23.00;54.20;;;;;;6195598;28;20685;-51
2023/05/23 02:22:30;;;;;;;1.00;0.88;;;22.90;54.00;;;;;;6195955;28;20038;-53
2023/05/23 02:25:32;;;;;;;0.80;0.80;;;23.30;54.50;;;;;;6196074;28;20046;-49
2023/05/23 02:28:34;;;;;;;0.90;0.80;;;23.00;54.30;;;;;;6199937;28;20105;-49
2023/05/23 02:31:42;;;;;;;1.00;0.90;;;23.10;54.50;;;;;;6199389;28;20613;-52
2023/05/23 02:34:45;;;;;;;1.67;1.00;;;23.00;54.50;;;;;;6196566;28;20510;-53
2023/05/23 02:37:46;;;;;;;0.82;0.77;;;23.10;54.60;;;;;;6195832;28;20034;-53
2023/05/23 02:40:50;;;;;;;1.00;0.80;;;23.00;54.60;;;;;;6194731;28;20122;-50
2023/05/23 02:43:52;;;;;;;0.98;0.73;;;22.60;54.40;;;;;;6196087;28;20101;-52
2023/05/23 02:46:54;;;;;;;0.98;0.82;;;22.90;54.60;;;;;;6195075;28;20053;-49
2023/05/23 02:49:55;;;;;;;0.90;0.80;;;23.00;55.00;;;;;;6195491;28;20034;-51
2023/05/23 02:52:57;;;;;;;1.00;0.80;;;23.00;54.90;;;;;;6194675;28;20097;-50
2023/05/23 02:55:59;;;;;;;;;;;22.60;54.90;;;;;;6195115;28;20035;-52
2023/05/23 02:59:01;;;;;;;1.10;1.00;;;23.10;55.30;;;;;;6195904;28;19964;-52
2023/05/23 03:02:03;;;;;;;0.90;0.80;;;22.90;54.90;;;;;;6195806;28;20057;-51
2023/05/23 03:05:07;;;;;;;1.42;1.00;;;22.50;54.70;;;;;;6194953;28;20529;-52
2023/05/23 03:08:08;;;;;;;1.33;0.80;;;22.50;54.80;;;;;;6195509;28;20042;-53
2023/05/23 03:11:10;;;;;;;1.48;0.93;;;22.90;55.10;;;;;;6194837;28;20042;-51
2023/05/23 03:14:11;;;;;;;;;;;22.90;55.30;;;;;;6195619;28;20046;-54
2023/05/23 03:17:13;;;;;;;0.80;0.70;;;22.60;55.40;;;;;;6195007;28;19992;-50
2023/05/23 03:20:15;;;;;;;;;;;22.60;55.10;;;;;;6195009;28;20089;-52
2023/05/23 03:23:18;;;;;;;1.23;1.10;;;22.80;55.30;;;;;;6191792;28;19929;-51
2023/05/23 03:26:20;;;;;;;0.82;0.80;;;22.90;55.30;;;;;;6192484;28;20043;-51
2023/05/23 03:29:22;;;;;;;0.82;0.80;;;22.40;54.90;;;;;;6192953;28;20054;-53
2023/05/23 03:32:24;;;;;;;1.10;1.00;;;22.90;55.40;;;;;;6193192;28;20417;-52
2023/05/23 03:35:26;;;;;;;1.08;0.95;;;22.90;55.40;;;;;;6193177;28;20405;-53
2023/05/23 03:38:27;;;;;;;0.95;0.85;;;22.90;55.50;;;;;;6192025;28;20101;-52
2023/05/23 03:41:29;;;;;;;1.08;0.98;;;22.60;55.30;;;;;;6192896;28;20121;-53
2023/05/23 03:44:31;;;;;;;1.20;1.10;;;22.80;55.50;;;;;;6192480;28;20505;-50
2023/05/23 03:47:35;;;;;;;1.00;0.90;;;22.80;55.50;;;;;;6192005;28;20048;-48
2023/05/23 03:50:36;;;;;;;0.93;0.85;;;22.80;55.60;;;;;;6191557;28;20038;-47
2023/05/23 03:53:38;;;;;;;1.17;0.90;;;22.80;55.60;;;;;;6192325;28;20047;-50
2023/05/23 03:56:43;;;;;;;1.20;1.10;;;22.60;55.60;;;;;;6192496;28;20327;-50
2023/05/23 03:59:46;;;;;;;1.02;0.90;;;22.80;54.00;;;;;;6192060;28;20670;-49
2023/05/23 04:02:48;;;;;;;1.10;1.00;;;22.80;55.80;;;;;;6193076;28;20093;-48
2023/05/23 04:05:53;;;;;;;1.50;1.13;;;22.90;55.80;;;;;;6192700;28;20117;-53
2023/05/23 04:08:54;;;;;;;1.20;1.10;;;22.90;56.00;;;;;;6192267;28;20040;-51
2023/05/23 04:11:57;;;;;;;0.80;0.70;;;22.80;55.90;;;;;;6191788;28;20065;-51
2023/05/23 04:14:59;;;;;;;1.10;0.90;;;22.80;55.90;;;;;;6191965;28;20046;-48
2023/05/23 04:18:02;;;;;;;1.33;1.20;;;22.90;56.00;;;;;;6191215;28;20045;-48
2023/05/23 04:21:04;;;;;;;1.23;1.10;;;22.90;56.10;;;;;;6191041;28;20038;-52
2023/05/23 04:24:08;;;;;;;1.10;1.00;;;22.80;56.00;;;;;;6189892;28;20445;-51
2023/05/23 04:27:09;;;;;;;0.73;0.70;;;22.70;56.10;;;;;;6189121;28;20038;-52
2023/05/23 04:30:12;;;;;;;1.25;1.05;;;22.80;56.10;;;;;;6192203;28;20066;-52
2023/05/23 04:33:17;;;;;;;1.25;0.93;;;22.80;56.00;;;;;;6157146;28;20125;-51
2023/05/23 04:36:22;;;;;;;1.00;0.88;;;22.80;56.00;;;;;;6191150;28;20026;-51
2023/05/23 04:39:28;;;;;;;1.23;0.90;;;22.90;56.40;;;;;;6190766;28;20041;-52
2023/05/23 04:42:50;;;;;;;1.00;0.90;;;22.90;56.10;;;;;;6189254;28;20046;-50
2023/05/23 04:46:04;;;;;;;0.95;0.82;;;22.70;56.40;;;;;;6190706;28;20125;-52
2023/05/23 04:49:09;;;;;;;1.42;0.90;;;22.70;56.20;;;;;;6189958;28;20046;-49
2023/05/23 04:52:12;;;;;;;1.15;1.00;;;22.70;56.40;;;;;;6190919;28;20716;-48
2023/05/23 04:55:16;;;;;;;0.73;0.70;;;22.80;56.40;;;;;;6190241;28;20034;-51
2023/05/23 04:58:18;;;;;;;1.30;1.10;;;22.70;56.30;;;;;;6190210;28;20602;-51
2023/05/23 05:01:23;;;;;;;1.52;0.90;;;22.70;56.20;;;;;;6189398;28;20520;-52
2023/05/23 05:04:25;;;;;;;0.70;0.68;;;22.80;56.10;;;;;;6189554;28;20121;-50
2023/05/23 05:07:28;;;;;;;1.52;0.82;;;22.80;56.20;;;;;;6190217;28;20045;-51
2023/05/23 05:10:30;;;;;;;1.00;0.90;;;22.70;56.00;;;;;;6190004;28;20061;-49
2023/05/23 05:13:31;;;;;;;1.65;1.00;;;22.30;55.80;;;;;;6189757;28;20046;-51
2023/05/23 05:16:35;;;;;;;1.42;0.90;;;22.80;56.00;;;;;;6185636;28;20034;-51
2023/05/23 05:19:36;;;;;;;0.90;0.60;;;23.60;56.30;;;;;;6190184;28;20042;-52
2023/05/23 05:22:39;;;;;;;1.20;0.80;;;22.30;55.60;;;;;;6189486;28;20046;-51
2023/05/23 05:25:40;;;;;;;0.90;0.70;;;22.80;55.60;;;;;;6188613;28;20034;-51
2023/05/23 05:28:42;;;;;;;1.10;0.90;;;22.80;55.70;;;;;;6182569;28;20479;-51
2023/05/23 05:31:45;;;;;;;1.25;0.82;;;22.60;55.40;;;;;;6199284;28;20050;-50
2023/05/23 05:34:47;;;;;;;1.00;0.80;;;22.60;55.50;;;;;;6192698;28;20043;-49
2023/05/23 05:37:52;;;;;;;1.08;0.80;;;22.70;55.30;;;;;;6190669;28;20053;-50
2023/05/23 05:40:54;;;;;;;0.85;0.85;;;22.70;55.40;;;;;;6192793;28;20121;-50
2023/05/23 05:43:56;;;;;;;1.38;1.10;;;22.80;55.20;;;;;;6192254;28;20048;-51
2023/05/23 05:46:58;;;;;;;;;;;22.80;55.30;;;;;;6191282;28;20581;-48
2023/05/23 05:50:00;;;;;;;1.40;1.20;;;22.70;55.30;;;;;;6191818;28;19921;-52
2023/05/23 05:53:02;;;;;;;1.10;0.85;;;22.70;55.20;;;;;;6190955;28;20670;-53
2023/05/23 05:56:04;;;;;;;1.00;0.90;;;22.70;55.00;;;;;;6190533;28;20074;-52
2023/05/23 05:59:07;;;;;;;1.25;1.02;;;22.70;54.90;;;;;;6167501;28;20527;-53
2023/05/23 06:02:09;;;;;;;1.00;0.70;;;22.80;55.00;;;;;;6178394;28;20062;-49
2023/05/23 06:05:11;;;;;;;1.17;0.90;;;22.70;54.80;;;;;;6186250;28;20042;-52
2023/05/23 06:08:15;;;;;;;0.82;0.77;;;22.80;54.90;;;;;;6171942;28;20066;-51
2023/05/23 06:11:17;;;;;;;1.30;1.00;;;22.70;54.70;;;;;;6166610;28;20117;-49
2023/05/23 06:14:19;;;;;;;1.02;0.90;;;22.60;54.50;;;;;;6162692;28;20038;-52
2023/05/23 06:17:22;;;;;;;1.00;0.90;;;22.70;55.00;;;;;;6161112;28;20166;-53
2023/05/23 06:20:24;;;;;;;0.85;0.80;;;22.70;54.50;;;;;;6167726;28;20117;-52
2023/05/23 06:23:27;;;;;;;0.80;0.80;;;22.80;54.60;;;;;;6175301;28;20037;-52
2023/05/23 06:26:31;;;;;;;1.10;0.80;;;22.50;54.30;;;;;;6175660;28;20040;-49
2023/05/23 06:29:34;;;;;;;1.00;0.82;;;22.80;54.50;;;;;;6164457;28;20046;-52
2023/05/23 06:32:37;;;;;;;0.75;0.65;;;22.40;54.30;;;;;;6163715;28;20747;-52
2023/05/23 06:35:38;;;;;;;1.10;0.90;;;22.90;54.70;;;;;;6150447;28;20453;-52
2023/05/23 06:38:40;;;;;;;;;;;22.40;54.90;;;;;;6172323;28;20046;-51
2023/05/23 06:41:42;;;;;;;1.08;0.88;;;22.90;54.40;;;;;;6168615;28;19929;-52
2023/05/23 06:44:44;;;;;;;1.63;0.85;;;22.70;54.10;;;;;;6170071;28;20053;-52
2023/05/23 06:47:48;;;;;;;1.10;0.93;;;22.90;55.50;;;;;;6167852;28;20041;-52
2023/05/23 06:50:50;;;;;;;1.25;1.00;;;22.90;54.30;;;;;;6168641;28;20042;-54
2023/05/23 06:53:52;;;;;;;1.67;0.88;;;23.00;54.70;;;;;;6164122;28;20055;-52
2023/05/23 06:56:54;;;;;;;1.17;0.82;;;22.90;54.90;;;;;;6152531;28;20242;-55
2023/05/23 06:59:55;;;;;;;1.20;0.80;;;22.60;54.40;;;;;;6140594;28;21131;-51
2023/05/23 07:03:02;;;;;;;1.45;1.02;;;22.80;54.50;;;;;;6151523;28;20824;-52
2023/05/23 07:06:04;;;;;;;0.88;0.70;;;22.50;54.30;;;;;;6119744;28;20859;-53
2023/05/23 07:09:06;;;;;;;0.95;0.90;;;22.90;54.40;;;;;;6142962;28;20066;-52
2023/05/23 07:12:08;;;;;;;0.93;0.82;;;22.90;54.50;;;;;;6150805;28;20042;-54
2023/05/23 07:15:13;;;;;;;2.22;1.20;;;22.80;54.40;;;;;;6149792;28;20030;-51
2023/05/23 07:18:25;;;;;;;1.20;1.10;;;23.00;54.80;;;;;;6158666;28;20697;-53
2023/05/23 07:21:28;;;;;;;0.90;0.80;;;22.90;54.40;;;;;;6151151;28;20034;-53
2023/05/23 07:24:29;;;;;;;2.45;0.90;;;22.90;54.50;;;;;;6152738;28;20136;-58
2023/05/23 07:27:32;;;;;;;1.38;0.90;;;24.20;55.10;;;;;;6153447;28;20169;-56
2023/05/23 07:30:33;;;;;;;1.48;0.80;;;22.80;54.80;;;;;;6127495;28;20026;-52
2023/05/23 07:33:35;;;;;;;1.02;0.70;;;23.00;54.80;;;;;;6128611;28;20038;-50
2023/05/23 07:36:41;;;;;;;1.77;0.70;;;22.90;54.80;;;;;;6133592;28;20621;-55
2023/05/23 07:39:46;;;;;;;0.90;0.77;;;22.60;54.10;;;;;;6154863;28;20114;-54
2023/05/23 07:42:47;;;;;;;0.82;0.73;;;23.00;54.80;;;;;;6142617;28;20050;-51
2023/05/23 07:45:50;;;;;;;0.90;0.68;;;22.90;54.60;;;;;;6132599;28;20039;-54
2023/05/23 07:48:52;;;;;;;1.08;0.73;;;22.70;54.40;;;;;;6157826;28;20045;-55
2023/05/23 07:51:57;;;;;;;0.82;0.80;;;23.10;54.40;;;;;;6160106;28;20040;-51
2023/05/23 07:55:00;;;;;;;0.88;0.80;;;23.10;55.40;;;;;;6162519;28;20042;-51
2023/05/23 07:58:02;;;;;;;1.30;0.80;;;23.30;54.50;;;;;;6161510;28;20303;-54
2023/05/23 08:01:05;;;;;;;0.98;0.88;;;23.10;54.40;;;;;;6161705;28;20513;-51
2023/05/23 08:04:27;;;;;;;;;;;23.00;54.30;;;;;;6164256;28;20047;-55
2023/05/23 08:07:29;;;;;;;0.90;0.70;;;23.10;54.60;;;;;;6171450;28;20642;-53
2023/05/23 08:10:35;;;;;;;0.90;0.80;;;23.30;54.50;;;;;;6152850;28;20794;-53
2023/05/23 08:13:45;;;;;;;1.60;1.30;;;23.10;54.50;;;;;;6175184;28;20605;-53
2023/05/23 08:17:04;;;;;;;;;;;23.10;54.50;;;;;;6169124;28;20043;-54
2023/05/23 08:20:08;;;;;;;1.45;0.77;;;23.30;55.00;;;;;;6171385;28;19918;-55
2023/05/23 08:23:11;;;;;;;1.55;1.10;;;22.80;54.10;;;;;;6173833;28;20270;-52
2023/05/23 08:26:14;;;;;;;1.35;1.10;;;23.20;54.60;;;;;;6154695;28;20049;-53
2023/05/23 08:29:18;;;;;;;1.20;1.02;;;23.20;54.60;;;;;;6128056;28;20060;-53
2023/05/23 08:32:21;;;;;;;1.55;1.17;;;23.20;54.80;;;;;;6137194;28;20046;-52
2023/05/23 08:35:23;;;;;;;1.50;1.02;;;23.30;54.40;;;;;;6142483;28;20065;-54
2023/05/23 08:38:26;;;;;;;1.23;1.00;;;23.30;55.10;;;;;;6149761;28;20038;-54
2023/05/23 08:41:37;;;;;;;1.30;1.20;;;23.30;54.90;;;;;;6167910;28;20737;-56
2023/05/23 08:44:43;;;;;;;1.50;1.40;;;23.30;55.00;;;;;;6136352;28;20062;-53
2023/05/23 08:47:46;;;;;;;2.08;1.23;;;23.30;54.80;;;;;;6146083;28;20096;-53
2023/05/23 08:50:52;;;;;;;2.25;1.30;;;23.40;55.00;;;;;;6137628;28;20050;-54
2023/05/23 08:53:57;;;;;;;1.65;1.30;;;23.30;54.80;;;;;;6140216;28;20732;-55
2023/05/23 08:57:01;;;;;;;1.35;1.20;;;22.70;54.50;;;;;;6165129;28;20794;-53
2023/05/23 09:00:09;;;;;;;2.35;1.38;;;23.50;54.90;;;;;;6156281;28;20248;-56
2023/05/23 09:03:11;;;;;;;1.17;1.08;;;24.20;55.30;;;;;;6166495;28;20042;-53
2023/05/23 09:06:24;;;;;;;1.63;1.52;;;23.50;54.90;;;;;;6158092;28;20030;-54
2023/05/23 09:09:25;;;;;;;1.45;1.35;;;23.40;54.90;;;;;;6164695;28;20031;-54
2023/05/23 09:12:28;;;;;;;1.90;1.48;;;23.30;54.20;;;;;;6158879;28;20034;-54
2023/05/23 09:15:30;;;;;;;1.58;1.25;;;23.30;54.70;;;;;;6174095;28;20142;-54
2023/05/23 09:18:35;;;;;;;1.70;1.60;;;23.60;54.70;;;;;;6171482;28;20034;-53
2023/05/23 09:21:42;;;;;;;1.33;1.23;;;23.60;54.80;;;;;;6149944;28;20865;-57
2023/05/23 09:24:51;;;;;;;1.55;1.42;;;23.60;54.80;;;;;;6151246;28;20105;-57
2023/05/23 09:27:53;;;;;;;1.90;1.70;;;23.30;55.00;;;;;;6154455;28;20041;-55
2023/05/23 09:30:58;;;;;;;1.45;1.35;;;23.50;54.30;;;;;;6161859;28;20126;-56
2023/05/23 09:34:00;;;;;;;1.48;1.38;;;23.60;54.60;;;;;;6150322;28;20042;-54
2023/05/23 09:37:03;;;;;;;1.60;1.50;;;23.50;54.30;;;;;;6165178;28;20030;-56
2023/05/23 09:40:09;;;;;;;1.60;1.50;;;23.60;54.40;;;;;;6148324;28;20046;-55
2023/05/23 09:43:12;;;;;;;1.50;1.40;;;23.50;54.30;;;;;;6165962;28;20038;-58
2023/05/23 09:46:13;;;;;;;1.83;1.52;;;23.70;54.50;;;;;;6144519;28;20042;-56
2023/05/23 09:49:16;;;;;;;1.50;1.40;;;23.60;54.60;;;;;;6115469;28;20165;-56
2023/05/23 09:52:21;;;;;;;1.50;1.33;;;23.60;54.50;;;;;;6120229;28;20101;-53
2023/05/23 09:55:23;;;;;;;1.88;1.50;;;23.60;54.60;;;;;;6133872;28;20069;-52
2023/05/23 09:58:26;;;;;;;1.65;1.35;;;23.40;54.50;;;;;;6150645;28;20593;-54
2023/05/23 10:01:31;;;;;;;2.17;1.40;;;23.60;54.60;;;;;;6162125;28;20780;-55
2023/05/23 10:04:34;;;;;;;1.48;1.38;;;23.60;54.60;;;;;;6130221;28;20746;-54
2023/05/23 10:07:37;;;;;;;1.67;1.40;;;23.60;54.80;;;;;;6131324;28;20037;-57
2023/05/23 10:11:20;;;;;;;1.30;1.20;;;23.50;54.30;;;;;;6142840;28;20037;-55
2023/05/23 10:14:22;;;;;;;2.08;1.60;;;23.60;54.40;;;;;;6132563;28;20042;-55
2023/05/23 10:17:36;;;;;;;1.77;1.35;;;23.60;54.70;;;;;;6141204;28;20700;-54
2023/05/23 10:20:42;;;;;;;1.67;1.55;;;23.60;54.20;;;;;;6123958;28;20275;-54
2023/05/23 10:23:46;;;;;;;1.50;1.40;;;23.20;53.90;;;;;;6144394;28;20036;-54
2023/05/23 10:26:48;;;;;;;1.90;1.38;;;22.50;53.80;;;;;;6152798;28;20047;-54
2023/05/23 10:29:52;;;;;;;1.63;1.52;;;23.40;54.30;;;;;;6151600;28;20318;-55
2023/05/23 10:32:55;;;;;;;1.63;1.50;;;23.70;54.30;;;;;;6149737;28;20120;-54
2023/05/23 10:36:04;;;;;;;1.83;1.42;;;23.70;54.20;;;;;;6161028;28;20725;-55
2023/05/23 10:39:15;;;;;;;1.80;1.38;;;22.90;53.70;;;;;;6157964;28;20441;-52
2023/05/23 10:42:24;;;;;;;1.63;1.30;;;23.70;54.10;;;;;;6161579;28;20030;-54
2023/05/23 10:45:25;;;;;;;1.48;1.38;;;23.70;54.10;;;;;;6168482;28;20575;-54
2023/05/23 10:48:34;;;;;;;1.20;1.10;;;23.80;54.30;;;;;;6163358;28;20043;-55
2023/05/23 10:51:38;;;;;;;1.85;1.65;;;23.80;54.40;;;;;;6157371;28;20184;-54
2023/05/23 10:54:45;;;;;;;1.48;1.30;;;23.50;54.10;;;;;;6155319;28;20041;-55
2023/05/23 10:58:06;;;;;;;2.83;2.13;;;23.70;53.80;;;;;;6161233;28;20058;-56
2023/05/23 11:01:09;;;;;;;4.75;3.13;;;23.80;53.70;;;;;;6168938;28;20690;-55
2023/05/23 11:04:11;;;;;;;4.13;2.78;;;23.60;53.40;;;;;;6172965;28;20041;-54
2023/05/23 11:07:31;;;;;;;3.90;3.03;;;23.60;53.40;;;;;;6163673;28;20039;-56
2023/05/23 11:10:51;;;;;;;4.90;4.00;;;23.60;53.40;;;;;;6167429;28;20049;-54
2023/05/23 11:13:56;;;;;;;5.20;3.15;;;23.70;53.90;;;;;;6157751;28;20555;-55
2023/05/23 11:16:58;;;;;;;6.00;3.35;;;23.80;53.40;;;;;;6166219;28;20796;-56
2023/05/23 11:20:05;;;;;;;3.88;2.78;;;23.60;53.80;;;;;;6150060;28;20693;-54
2023/05/23 11:23:07;;;;;;;3.50;2.67;;;23.70;53.60;;;;;;6132478;28;20898;-55
2023/05/23 11:26:31;;;;;;;4.22;2.45;;;23.80;54.00;;;;;;6162149;28;20039;-55
2023/05/23 11:29:33;;;;;;;2.50;2.15;;;23.70;53.70;;;;;;6161896;28;20058;-54
2023/05/23 11:32:38;;;;;;;;;;;23.40;53.40;;;;;;6162944;28;20073;-55
2023/05/23 11:35:41;;;;;;;5.35;3.17;;;23.60;51.10;;;;;;6161569;28;19921;-54
2023/05/23 11:38:42;;;;;;;4.78;3.67;;;23.70;53.60;;;;;;6150600;28;20046;-55
2023/05/23 11:41:49;;;;;;;5.10;3.33;;;23.80;53.10;;;;;;6160347;28;20042;-55
2023/05/23 11:44:51;;;;;;;5.88;4.28;;;23.30;53.40;;;;;;6153419;28;20042;-53
2023/05/23 11:47:52;;;;;;;3.83;3.28;;;23.80;53.10;;;;;;6159105;28;20074;-56
2023/05/23 11:50:54;;;;;;;4.85;3.53;;;23.70;53.50;;;;;;6152262;28;20050;-54
2023/05/23 11:54:00;;;;;;;6.57;4.40;;;23.70;53.00;;;;;;6160903;28;20761;-52
2023/05/23 11:57:06;;;;;;;6.50;4.07;;;23.40;53.30;;;;;;6162863;28;20034;-57
2023/05/23 12:00:10;;;;;;;6.72;3.88;;;23.70;53.30;;;;;;6140128;28;20053;-57
2023/05/23 12:03:11;;;;;;;5.32;3.67;;;23.70;53.20;;;;;;6151760;28;20841;-57
2023/05/23 12:06:15;;;;;;;3.58;3.00;;;23.70;53.10;;;;;;6158540;28;20410;-57
2023/05/23 12:09:17;;;;;;;3.28;2.53;;;23.60;53.20;;;;;;6157393;28;20041;-55
2023/05/23 12:12:20;;;;;;;2.83;2.50;;;23.50;52.90;;;;;;6155363;28;20213;-56
2023/05/23 12:15:25;;;;;;;6.00;3.20;;;24.00;53.30;;;;;;6156842;28;20057;-56
2023/05/23 12:18:29;;;;;;;5.88;3.38;;;24.00;53.30;;;;;;6139561;28;20078;-57
2023/05/23 12:21:45;;;;;;;8.35;4.78;;;23.80;53.20;;;;;;6142747;28;20700;-56
2023/05/23 12:24:47;;;;;;;6.07;3.40;;;23.90;53.20;;;;;;6131075;28;20826;-57
2023/05/23 12:27:49;;;;;;;5.80;3.25;;;23.80;53.20;;;;;;6160309;28;20086;-55
2023/05/23 12:30:53;;;;;;;5.65;3.38;;;23.90;53.40;;;;;;6158061;28;20042;-57
2023/05/23 12:33:57;;;;;;;4.80;3.60;;;23.80;53.30;;;;;;6155997;28;20466;-58
2023/05/23 12:37:02;;;;;;;4.20;3.28;;;24.10;53.30;;;;;;6157995;28;20736;-58
2023/05/23 12:40:20;;;;;;;6.43;3.25;;;24.10;52.90;;;;;;6165035;28;20046;-58
2023/05/23 12:43:22;;;;;;;4.78;3.45;;;24.10;52.70;;;;;;6152352;28;20158;-57
2023/05/23 12:46:25;;;;;;;5.97;4.03;;;23.90;53.20;;;;;;6155416;28;20049;-56
2023/05/23 12:49:28;;;;;;;4.70;3.53;;;23.80;52.30;;;;;;6163365;28;20042;-57
2023/05/23 12:52:29;;;;;;;4.78;3.17;;;24.00;52.50;;;;;;6138481;28;20728;-58
2023/05/23 12:55:32;;;;;;;5.38;2.63;;;24.10;52.60;;;;;;6166387;28;20050;-58
2023/05/23 12:58:34;;;;;;;6.10;4.28;;;24.20;52.50;;;;;;6143566;28;20033;-57
2023/05/23 13:01:36;;;;;;;4.55;3.83;;;24.20;52.40;;;;;;6139178;28;20162;-58
2023/05/23 13:04:38;;;;;;;5.05;4.15;;;23.90;52.60;;;;;;6147549;28;20169;-58
2023/05/23 13:07:40;;;;;;;6.35;4.03;;;23.70;51.60;;;;;;6141660;28;20097;-56
2023/05/23 13:10:44;;;;;;;4.82;3.78;;;24.10;51.80;;;;;;6140044;28;20318;-57
2023/05/23 13:13:48;;;;;;;4.35;3.10;;;23.60;50.10;;;;;;6125930;28;20892;-58
2023/05/23 13:16:51;;;;;;;3.53;3.22;;;23.80;51.40;;;;;;6147771;28;20038;-58
2023/05/23 13:19:52;;;;;;;4.40;3.03;;;24.20;51.80;;;;;;6158497;28;20042;-58
2023/05/23 13:22:53;;;;;;;6.15;3.80;;;24.20;51.90;;;;;;6155328;28;20030;-57
2023/05/23 13:25:56;;;;;;;2.95;2.70;;;24.40;51.20;;;;;;6127211;28;20833;-56
2023/05/23 13:28:58;;;;;;;3.83;2.97;;;24.30;51.60;;;;;;6096030;28;20387;-57
2023/05/23 13:32:00;;;;;;;4.55;3.22;;;24.20;51.60;;;;;;6109917;28;20026;-57
2023/05/23 13:35:02;;;;;;;6.82;3.60;;;24.40;51.20;;;;;;6129399;28;20038;-57
2023/05/23 13:38:04;;;;;;;4.32;3.05;;;25.90;51.30;;;;;;6154996;28;20113;-57
2023/05/23 13:41:05;;;;;;;3.40;3.00;;;24.40;50.90;;;;;;6150480;28;20038;-57
2023/05/23 13:44:07;;;;;;;4.22;2.83;;;23.80;50.10;;;;;;6146714;28;20034;-56
2023/05/23 13:47:10;;;;;;;2.90;2.28;;;24.30;50.50;;;;;;6160770;28;20102;-56
2023/05/23 13:50:14;;;;;;;3.92;2.97;;;23.90;50.10;;;;;;6143846;28;20644;-56
2023/05/23 13:53:16;;;;;;;7.38;2.50;;;24.40;50.60;;;;;;6122864;28;20037;-55
2023/05/23 13:56:20;;;;;;;2.03;1.83;;;24.60;50.60;;;;;;6148664;28;20053;-57
2023/05/23 13:59:25;;;;;;;2.10;1.90;;;24.40;48.00;;;;;;6150047;28;20034;-55
2023/05/23 14:02:27;;;;;;;3.20;1.90;;;24.10;50.20;;;;;;6150734;28;20084;-56
2023/05/23 14:05:28;;;;;;;3.80;1.98;;;24.40;50.70;;;;;;6151311;28;20046;-57
2023/05/23 14:08:30;;;;;;;2.13;1.40;;;24.10;50.70;;;;;;6143691;28;20042;-57
2023/05/23 14:11:32;;;;;;;1.88;1.65;;;24.90;50.90;;;;;;6113502;28;20068;-57
2023/05/23 14:14:34;;;;;;;4.28;1.80;;;24.50;50.50;;;;;;6118173;28;20038;-57
2023/05/23 14:17:36;;;;;;;1.85;1.63;;;24.40;50.40;;;;;;6136352;28;20113;-57
2023/05/23 14:20:37;;;;;;;3.58;2.00;;;24.30;50.00;;;;;;6146428;28;20042;-58
2023/05/23 14:23:39;;;;;;;1.83;1.25;;;24.30;50.10;;;;;;6144925;28;20053;-58
2023/05/23 14:26:40;;;;;;;1.92;1.27;;;24.40;49.80;;;;;;6144246;28;20041;-58
2023/05/23 14:29:45;;;;;;;1.70;1.20;;;24.30;49.90;;;;;;6144943;28;20672;-57
2023/05/23 14:32:46;;;;;;;1.65;1.10;;;23.90;49.50;;;;;;6142555;28;20042;-58
2023/05/23 14:35:49;;;;;;;2.60;1.48;;;24.10;49.90;;;;;;6140836;28;20037;-57
2023/05/23 14:38:50;;;;;;;3.38;2.38;;;23.90;49.00;;;;;;6147353;28;20758;-58
2023/05/23 14:41:55;;;;;;;3.25;1.77;;;24.30;49.30;;;;;;6149497;28;20034;-58
2023/05/23 14:44:57;;;;;;;2.72;1.88;;;24.30;49.10;;;;;;6154056;28;20712;-58
2023/05/23 14:47:58;;;;;;;2.58;1.50;;;24.20;48.70;;;;;;6149560;28;20798;-53
2023/05/23 14:51:00;;;;;;;1.55;1.20;;;24.30;49.00;;;;;;6149587;28;20034;-56
2023/05/23 14:54:02;;;;;;;2.55;1.40;;;24.30;49.10;;;;;;6121220;28;20035;-57
2023/05/23 14:57:04;;;;;;;3.90;1.88;;;24.40;49.40;;;;;;6134584;28;20038;-46
2023/05/23 15:00:07;;;;;;;3.08;1.85;;;24.40;48.30;;;;;;6147570;28;20045;-55
2023/05/23 15:03:09;;;;;;;2.80;1.50;;;24.30;47.70;;;;;;6145922;28;20741;-56
2023/05/23 15:06:11;;;;;;;3.88;1.50;;;24.30;47.80;;;;;;6133686;28;20039;-56
2023/05/23 15:09:16;;;;;;;2.35;1.08;;;24.20;47.30;;;;;;6121662;28;20049;-55
2023/05/23 15:12:20;;;;;;;1.48;1.20;;;24.10;46.90;;;;;;6143107;28;20248;-57
2023/05/23 15:15:22;;;;;;;1.70;1.10;;;24.20;47.10;;;;;;6136779;28;20040;-55
2023/05/23 15:18:24;;;;;;;2.00;0.95;;;24.90;47.90;;;;;;6107226;28;20046;-55
2023/05/23 15:21:42;;;;;;;1.98;1.17;;;24.20;47.20;;;;;;6101720;28;20851;-57
2023/05/23 15:24:52;;;;;;;;;;;24.30;47.40;;;;;;6091141;28;20042;-57
2023/05/23 15:27:55;;;;;;;;;;;24.30;47.40;;;;;;6081496;28;19955;-55
2023/05/23 15:30:57;;;;;;;2.00;1.10;;;24.80;48.30;;;;;;6068711;28;20801;-56
2023/05/23 15:33:59;;;;;;;2.75;1.20;;;24.30;47.50;;;;;;6105680;28;20058;-56
2023/05/23 15:37:00;;;;;;;2.70;1.10;;;24.40;47.40;;;;;;6138491;28;20039;-55
2023/05/23 15:40:03;;;;;;;2.10;1.10;;;24.30;46.80;;;;;;6149043;28;20101;-57
2023/05/23 15:43:04;;;;;;;1.33;0.95;;;24.30;46.90;;;;;;6148977;28;20042;-54
2023/05/23 15:46:06;;;;;;;2.95;1.00;;;24.30;46.70;;;;;;6153085;28;20049;-54
2023/05/23 15:49:08;;;;;;;1.45;0.82;;;23.90;46.40;;;;;;6145488;28;20038;-56
2023/05/23 15:52:26;;;;;;;1.20;0.60;;;24.50;46.80;;;;;;6149817;28;20038;-55
2023/05/23 15:55:28;;;;;;;0.70;0.60;;;24.00;46.30;;;;;;6121863;28;20104;-55
2023/05/23 15:58:33;;;;;;;0.43;0.43;;;24.30;46.10;;;;;;6153468;28;20293;-57
2023/05/23 16:01:35;;;;;;;1.00;0.60;;;24.30;43.80;;;;;;6157182;28;20045;-56